Time;durP1;ratioP1;P1;durP2;ratioP2;P2;SDS_P1;SDS_P2;PMS_P1;PMS_P2;Temp;Humidity;BMP_temperature;BMP_pressure;BME280_temperature;BME280_humidity;BME280_pressure;Samples;Min_cycle;Max_cycle;Signal;HPM_P1;HPM_P2
2024/02/26 00:02:24;;;;;;;1.43;1.33;;;;;;;;;;5027493;28;20657;-52
2024/02/26 00:04:51;;;;;;;1.40;1.30;;;;;;;;;;5029897;28;20645;-51
2024/02/26 00:07:17;;;;;;;1.87;1.47;;;;;;;;;;5028680;28;20193;-55
2024/02/26 00:09:43;;;;;;;1.30;1.20;;;;;;;;;;5026372;28;20268;-51
2024/02/26 00:12:09;;;;;;;1.70;1.60;;;;;;;;;;5031370;28;20174;-51
2024/02/26 00:14:35;;;;;;;1.43;1.13;;;;;;;;;;5029535;28;20209;-55
2024/02/26 00:17:01;;;;;;;1.47;1.33;;;;;;;;;;5021501;28;20183;-51
2024/02/26 00:19:27;;;;;;;2.13;1.70;;;;;;;;;;5029488;28;20332;-51
2024/02/26 00:21:56;;;;;;;1.40;1.30;;;;;;;;;;5021350;28;20280;-53
2024/02/26 00:24:22;;;;;;;2.73;1.50;;;;;;;;;;5026407;28;20186;-51
2024/02/26 00:26:52;;;;;;;1.70;1.40;;;;;;;;;;5023448;28;20192;-52
2024/02/26 00:29:19;;;;;;;1.80;1.40;;;;;;;;;;5020193;28;20193;-55
2024/02/26 00:31:45;;;;;;;1.30;1.00;;;;;;;;;;5024325;28;20247;-52
2024/02/26 00:34:11;;;;;;;1.47;1.20;;;;;;;;;;5024429;28;20193;-52
2024/02/26 00:36:37;;;;;;;1.23;1.13;;;;;;;;;;5021137;28;20253;-51
2024/02/26 00:39:03;;;;;;;1.40;1.30;;;;;;;;;;5024813;28;20200;-51
2024/02/26 00:41:29;;;;;;;1.60;1.30;;;;;;;;;;5025238;28;20220;-54
2024/02/26 00:43:55;;;;;;;2.73;1.30;;;;;;;;;;5022666;28;20221;-56
2024/02/26 00:46:21;;;;;;;1.67;1.40;;;;;;;;;;5020532;28;20205;-55
2024/02/26 00:48:47;;;;;;;2.17;1.60;;;;;;;;;;5026830;28;20182;-56
2024/02/26 00:51:15;;;;;;;1.60;1.50;;;;;;;;;;5016825;28;20201;-55
2024/02/26 00:53:41;;;;;;;2.20;1.80;;;;;;;;;;5024291;28;20206;-56
2024/02/26 00:56:07;;;;;;;1.57;1.47;;;;;;;;;;5027678;28;20213;-55
2024/02/26 00:58:33;;;;;;;1.10;1.00;;;;;;;;;;5024925;28;20328;-56
2024/02/26 01:00:59;;;;;;;1.40;1.30;;;;;;;;;;5017690;28;20673;-56
2024/02/26 01:03:25;;;;;;;1.33;1.17;;;;;;;;;;5019749;28;20217;-56
2024/02/26 01:05:51;;;;;;;2.50;1.50;;;;;;;;;;5028693;28;20245;-56
2024/02/26 01:08:17;;;;;;;1.30;1.20;;;;;;;;;;5028776;28;20216;-56
2024/02/26 01:10:43;;;;;;;1.50;1.00;;;;;;;;;;5025639;28;20206;-56
2024/02/26 01:13:09;;;;;;;2.40;1.60;;;;;;;;;;5029015;28;20644;-55
2024/02/26 01:15:35;;;;;;;1.23;1.13;;;;;;;;;;5028160;28;20277;-56
2024/02/26 01:18:01;;;;;;;1.80;1.40;;;;;;;;;;5022954;28;20629;-56
2024/02/26 01:20:27;;;;;;;1.47;1.37;;;;;;;;;;5021954;28;20277;-56
2024/02/26 01:22:53;;;;;;;1.37;1.27;;;;;;;;;;5026961;28;20182;-56
2024/02/26 01:25:19;;;;;;;1.77;1.10;;;;;;;;;;5016086;28;20233;-56
2024/02/26 01:27:45;;;;;;;2.60;1.70;;;;;;;;;;5021449;28;20170;-56
2024/02/26 01:30:12;;;;;;;1.63;1.30;;;;;;;;;;5022461;28;20545;-55
2024/02/26 01:32:38;;;;;;;1.40;1.30;;;;;;;;;;5024577;28;20167;-56
2024/02/26 01:35:05;;;;;;;1.60;1.20;;;;;;;;;;5014334;28;20183;-56
2024/02/26 01:37:31;;;;;;;1.83;1.60;;;;;;;;;;5018291;28;20213;-56
2024/02/26 01:39:57;;;;;;;2.93;1.50;;;;;;;;;;5023331;28;20213;-56
2024/02/26 01:42:23;;;;;;;1.40;1.30;;;;;;;;;;5023738;28;20209;-56
2024/02/26 01:44:49;;;;;;;1.50;1.40;;;;;;;;;;5014904;28;20218;-56
2024/02/26 01:47:15;;;;;;;1.60;1.40;;;;;;;;;;5027197;28;20174;-56
2024/02/26 01:49:41;;;;;;;1.40;1.30;;;;;;;;;;5019260;28;20197;-56
2024/02/26 01:52:11;;;;;;;1.63;1.50;;;;;;;;;;5021531;28;20178;-55
2024/02/26 01:54:37;;;;;;;1.33;1.23;;;;;;;;;;5017790;28;20564;-55
2024/02/26 01:57:04;;;;;;;1.27;1.17;;;;;;;;;;5027628;28;20530;-55
2024/02/26 01:59:30;;;;;;;1.43;1.27;;;;;;;;;;5027002;28;20193;-55
2024/02/26 02:01:58;;;;;;;1.30;1.17;;;;;;;;;;5026794;28;20177;-56
2024/02/26 02:04:24;;;;;;;2.67;1.53;;;;;;;;;;5019988;28;20229;-56
2024/02/26 02:06:51;;;;;;;1.20;1.10;;;;;;;;;;5017209;28;20179;-56
2024/02/26 02:09:17;;;;;;;1.20;1.10;;;;;;;;;;5023939;28;20269;-55
2024/02/26 02:11:44;;;;;;;1.00;1.00;;;;;;;;;;5017009;28;20174;-55
2024/02/26 02:14:10;;;;;;;1.93;1.10;;;;;;;;;;5018796;28;20631;-55
2024/02/26 02:16:36;;;;;;;1.17;1.10;;;;;;;;;;5017814;28;20185;-56
2024/02/26 02:19:02;;;;;;;3.00;1.40;;;;;;;;;;5021020;28;20214;-55
2024/02/26 02:21:28;;;;;;;2.63;1.13;;;;;;;;;;5024807;28;20181;-55
2024/02/26 02:23:55;;;;;;;1.20;1.10;;;;;;;;;;5015532;28;20216;-55
2024/02/26 02:26:21;;;;;;;1.20;1.10;;;;;;;;;;5017188;28;20641;-55
2024/02/26 02:28:48;;;;;;;1.67;1.30;;;;;;;;;;5027756;28;20180;-55
2024/02/26 02:31:14;;;;;;;1.60;1.03;;;;;;;;;;5028051;28;20896;-56
2024/02/26 02:33:40;;;;;;;1.23;1.13;;;;;;;;;;5027425;28;20664;-56
2024/02/26 02:36:09;;;;;;;2.30;1.40;;;;;;;;;;5018705;28;20634;-56
2024/02/26 02:38:35;;;;;;;1.20;1.10;;;;;;;;;;5026040;28;20205;-55
2024/02/26 02:41:01;;;;;;;4.50;1.30;;;;;;;;;;5025453;28;20234;-56
2024/02/26 02:43:27;;;;;;;1.60;1.07;;;;;;;;;;5024214;28;20539;-56
2024/02/26 02:45:53;;;;;;;1.10;1.10;;;;;;;;;;5026973;28;20553;-55
2024/02/26 02:48:19;;;;;;;1.33;1.23;;;;;;;;;;5026788;28;20518;-56
2024/02/26 02:50:46;;;;;;;1.50;0.87;;;;;;;;;;5022867;28;20182;-56
2024/02/26 02:53:12;;;;;;;1.20;1.10;;;;;;;;;;5019799;28;20672;-56
2024/02/26 02:55:38;;;;;;;0.97;0.97;;;;;;;;;;5025503;28;20700;-56
2024/02/26 02:58:04;;;;;;;1.30;1.20;;;;;;;;;;5029906;28;20177;-55
2024/02/26 03:00:30;;;;;;;1.20;1.10;;;;;;;;;;5026819;28;20173;-55
2024/02/26 03:02:56;;;;;;;2.33;1.40;;;;;;;;;;5028813;28;20649;-55
2024/02/26 03:05:22;;;;;;;1.10;1.00;;;;;;;;;;5021519;28;20293;-55
2024/02/26 03:07:48;;;;;;;1.07;1.00;;;;;;;;;;5020528;28;20166;-50
2024/02/26 03:10:14;;;;;;;1.57;1.47;;;;;;;;;;5029566;28;20239;-52
2024/02/26 03:12:40;;;;;;;1.73;1.30;;;;;;;;;;5025109;28;20277;-53
2024/02/26 03:15:06;;;;;;;2.30;1.37;;;;;;;;;;5028978;28;20209;-50
2024/02/26 03:17:32;;;;;;;2.33;1.20;;;;;;;;;;5020444;28;20228;-50
2024/02/26 03:19:58;;;;;;;1.30;1.10;;;;;;;;;;5026912;28;20540;-52
2024/02/26 03:22:24;;;;;;;1.07;1.00;;;;;;;;;;5018908;28;20206;-53
2024/02/26 03:24:50;;;;;;;1.30;1.10;;;;;;;;;;5025894;28;20212;-51
2024/02/26 03:27:16;;;;;;;1.50;1.40;;;;;;;;;;5029582;28;20368;-50
2024/02/26 03:29:42;;;;;;;1.43;1.33;;;;;;;;;;5028518;28;20727;-52
2024/02/26 03:32:08;;;;;;;1.80;1.57;;;;;;;;;;5020340;28;20614;-51
2024/02/26 03:34:34;;;;;;;1.23;1.23;;;;;;;;;;5028929;28;20205;-52
2024/02/26 03:37:01;;;;;;;2.43;1.37;;;;;;;;;;5026534;28;20224;-52
2024/02/26 03:39:27;;;;;;;1.53;1.40;;;;;;;;;;5016401;28;20279;-55
2024/02/26 03:41:54;;;;;;;1.50;1.40;;;;;;;;;;5017494;28;20653;-51
2024/02/26 03:44:20;;;;;;;1.67;1.37;;;;;;;;;;5020756;28;20243;-52
2024/02/26 03:46:46;;;;;;;1.63;1.53;;;;;;;;;;5015609;28;20209;-53
2024/02/26 03:49:13;;;;;;;1.23;1.10;;;;;;;;;;5025465;28;20163;-53
2024/02/26 03:51:39;;;;;;;1.47;1.30;;;;;;;;;;5026679;28;20648;-53
2024/02/26 03:54:05;;;;;;;1.60;1.50;;;;;;;;;;5024519;28;20201;-52
2024/02/26 03:56:31;;;;;;;1.90;1.47;;;;;;;;;;5021771;28;20259;-52
2024/02/26 03:58:59;;;;;;;4.03;1.60;;;;;;;;;;5029675;28;20621;-54
2024/02/26 04:01:25;;;;;;;2.13;1.47;;;;;;;;;;5027255;28;20251;-53
2024/02/26 04:03:52;;;;;;;1.70;1.40;;;;;;;;;;5022204;28;20193;-52
2024/02/26 04:06:20;;;;;;;2.10;1.43;;;;;;;;;;5025829;28;20973;-55
2024/02/26 04:08:46;;;;;;;1.50;1.23;;;;;;;;;;5025114;28;20615;-52
2024/02/26 04:11:13;;;;;;;2.50;1.60;;;;;;;;;;5020286;28;20189;-51
2024/02/26 04:13:39;;;;;;;2.23;1.60;;;;;;;;;;5022495;28;20204;-53
2024/02/26 04:16:05;;;;;;;1.70;1.53;;;;;;;;;;5023791;28;20174;-54
2024/02/26 04:18:32;;;;;;;1.60;1.50;;;;;;;;;;5028797;28;20581;-54
2024/02/26 04:20:58;;;;;;;1.83;1.67;;;;;;;;;;5016277;28;20201;-54
2024/02/26 04:23:24;;;;;;;1.40;1.30;;;;;;;;;;5024201;28;20201;-53
2024/02/26 04:25:50;;;;;;;1.40;1.20;;;;;;;;;;5021187;28;20197;-55
2024/02/26 04:28:16;;;;;;;1.50;1.40;;;;;;;;;;5025261;28;20206;-54
2024/02/26 04:30:42;;;;;;;3.47;1.37;;;;;;;;;;5024522;28;20189;-52
2024/02/26 04:33:08;;;;;;;1.67;1.57;;;;;;;;;;5018539;28;20256;-52
2024/02/26 04:35:35;;;;;;;2.33;1.80;;;;;;;;;;5022056;28;20656;-53
2024/02/26 04:38:01;;;;;;;2.70;1.90;;;;;;;;;;5016886;28;20183;-53
2024/02/26 04:40:27;;;;;;;2.00;1.53;;;;;;;;;;5019495;28;20287;-52
2024/02/26 04:42:53;;;;;;;1.40;1.30;;;;;;;;;;5017514;28;20206;-52
2024/02/26 04:45:19;;;;;;;3.33;1.50;;;;;;;;;;5013108;28;20697;-55
2024/02/26 04:47:45;;;;;;;1.50;1.40;;;;;;;;;;5013544;28;20280;-53
2024/02/26 04:50:11;;;;;;;1.60;1.50;;;;;;;;;;5019890;28;20640;-52
2024/02/26 04:52:37;;;;;;;1.60;1.50;;;;;;;;;;5022475;28;20194;-54
2024/02/26 04:55:04;;;;;;;1.70;1.50;;;;;;;;;;5025452;28;20748;-54
2024/02/26 04:57:30;;;;;;;3.57;1.60;;;;;;;;;;5027074;28;20209;-52
2024/02/26 04:59:56;;;;;;;1.53;1.30;;;;;;;;;;5027812;28;20181;-54
2024/02/26 05:02:22;;;;;;;2.17;1.53;;;;;;;;;;5023474;28;20664;-52
2024/02/26 05:04:48;;;;;;;2.27;1.40;;;;;;;;;;5023132;28;20229;-51
2024/02/26 05:07:14;;;;;;;1.77;1.67;;;;;;;;;;5025994;28;20267;-52
2024/02/26 05:09:41;;;;;;;1.80;1.70;;;;;;;;;;5025627;28;20185;-52
2024/02/26 05:12:08;;;;;;;2.30;1.60;;;;;;;;;;5027713;28;20242;-53
2024/02/26 05:14:34;;;;;;;2.07;1.70;;;;;;;;;;5022726;28;20214;-53
2024/02/26 05:17:00;;;;;;;1.67;1.57;;;;;;;;;;5024637;28;20223;-55
2024/02/26 05:19:26;;;;;;;2.03;1.40;;;;;;;;;;5023077;28;20229;-56
2024/02/26 05:21:52;;;;;;;1.87;1.50;;;;;;;;;;5028193;28;20189;-54
2024/02/26 05:24:18;;;;;;;1.70;1.60;;;;;;;;;;5026678;28;20260;-54
2024/02/26 05:26:47;;;;;;;2.93;1.80;;;;;;;;;;5025114;28;20288;-54
2024/02/26 05:29:13;;;;;;;2.00;1.83;;;;;;;;;;5012758;28;20174;-53
2024/02/26 05:31:39;;;;;;;1.50;1.40;;;;;;;;;;5028391;28;20697;-52
2024/02/26 05:34:05;;;;;;;1.83;1.30;;;;;;;;;;5021922;28;20611;-55
2024/02/26 05:36:33;;;;;;;1.80;1.43;;;;;;;;;;5027496;28;20508;-53
2024/02/26 05:39:00;;;;;;;1.73;1.27;;;;;;;;;;5023921;28;20566;-56
2024/02/26 05:41:26;;;;;;;2.00;1.60;;;;;;;;;;5026713;28;20641;-56
2024/02/26 05:43:55;;;;;;;2.07;1.53;;;;;;;;;;5026258;28;20677;-56
2024/02/26 05:46:22;;;;;;;1.77;1.50;;;;;;;;;;5020279;28;20218;-56
2024/02/26 05:48:48;;;;;;;1.70;1.47;;;;;;;;;;5022184;28;20506;-56
2024/02/26 05:51:15;;;;;;;1.83;1.53;;;;;;;;;;5024727;28;20707;-56
2024/02/26 05:53:44;;;;;;;1.97;1.30;;;;;;;;;;5022585;28;20178;-56
2024/02/26 05:56:10;;;;;;;1.70;1.50;;;;;;;;;;5016072;28;20176;-56
2024/02/26 05:58:36;;;;;;;1.50;1.40;;;;;;;;;;5023707;28;20209;-56
2024/02/26 06:01:02;;;;;;;1.50;1.40;;;;;;;;;;5011032;28;20570;-56
2024/02/26 06:03:28;;;;;;;1.73;1.57;;;;;;;;;;5018312;28;20848;-56
2024/02/26 06:05:54;;;;;;;2.33;1.80;;;;;;;;;;5027030;28;20193;-56
2024/02/26 06:08:20;;;;;;;2.23;1.77;;;;;;;;;;5026558;28;20170;-56
2024/02/26 06:10:46;;;;;;;1.60;1.50;;;;;;;;;;5025637;28;20189;-56
2024/02/26 06:13:12;;;;;;;1.83;1.70;;;;;;;;;;5023868;28;20576;-56
2024/02/26 06:15:38;;;;;;;2.20;1.60;;;;;;;;;;5017305;28;20647;-56
2024/02/26 06:18:04;;;;;;;1.73;1.63;;;;;;;;;;5024182;28;20224;-56
2024/02/26 06:20:30;;;;;;;1.90;1.70;;;;;;;;;;5025297;28;20699;-56
2024/02/26 06:22:56;;;;;;;2.30;1.80;;;;;;;;;;5026409;28;20538;-56
2024/02/26 06:25:22;;;;;;;1.70;1.60;;;;;;;;;;5024167;28;20193;-57
2024/02/26 06:27:48;;;;;;;2.53;1.90;;;;;;;;;;5022634;28;20186;-56
2024/02/26 06:30:14;;;;;;;2.90;2.00;;;;;;;;;;5026363;28;20705;-56
2024/02/26 06:32:40;;;;;;;2.53;1.80;;;;;;;;;;5027925;28;20197;-56
2024/02/26 06:35:08;;;;;;;2.40;2.03;;;;;;;;;;5022019;28;20518;-56
2024/02/26 06:37:35;;;;;;;2.50;1.67;;;;;;;;;;5024083;28;20174;-56
2024/02/26 06:40:03;;;;;;;2.33;1.50;;;;;;;;;;5025808;28;20640;-56
2024/02/26 06:42:30;;;;;;;2.37;2.07;;;;;;;;;;5027337;28;20314;-56
2024/02/26 06:44:56;;;;;;;2.03;1.83;;;;;;;;;;5027467;28;20210;-56
2024/02/26 06:47:22;;;;;;;2.10;1.90;;;;;;;;;;5023268;28;20185;-56
2024/02/26 06:49:48;;;;;;;1.80;1.60;;;;;;;;;;5024681;28;20166;-58
2024/02/26 06:52:14;;;;;;;2.50;2.13;;;;;;;;;;5026904;28;20178;-58
2024/02/26 06:54:40;;;;;;;2.03;1.50;;;;;;;;;;5026497;28;20280;-58
2024/02/26 06:57:06;;;;;;;1.90;1.80;;;;;;;;;;5027437;28;20910;-58
2024/02/26 06:59:32;;;;;;;2.00;1.80;;;;;;;;;;5023239;28;20217;-58
2024/02/26 07:01:58;;;;;;;2.53;2.00;;;;;;;;;;5023505;28;20602;-56
2024/02/26 07:04:24;;;;;;;2.07;1.60;;;;;;;;;;5027344;28;20213;-59
2024/02/26 07:06:50;;;;;;;1.60;1.50;;;;;;;;;;5026846;28;20571;-58
2024/02/26 07:09:16;;;;;;;1.90;1.80;;;;;;;;;;5016641;28;20189;-58
2024/02/26 07:11:43;;;;;;;2.30;1.70;;;;;;;;;;5023102;28;20495;-57
2024/02/26 07:14:09;;;;;;;2.70;1.73;;;;;;;;;;5020219;28;20175;-59
2024/02/26 07:16:35;;;;;;;4.63;1.73;;;;;;;;;;5022757;28;20225;-57
2024/02/26 07:19:02;;;;;;;3.07;1.90;;;;;;;;;;5016614;28;20257;-58
2024/02/26 07:21:28;;;;;;;2.07;1.87;;;;;;;;;;5021079;28;20168;-57
2024/02/26 07:23:54;;;;;;;2.77;2.40;;;;;;;;;;5021742;28;20182;-58
2024/02/26 07:26:20;;;;;;;2.00;1.63;;;;;;;;;;5023847;28;20566;-58
2024/02/26 07:28:46;;;;;;;2.07;1.70;;;;;;;;;;5019364;28;20246;-58
2024/02/26 07:31:13;;;;;;;2.73;2.00;;;;;;;;;;5007732;28;20197;-57
2024/02/26 07:33:39;;;;;;;2.50;1.83;;;;;;;;;;5015507;28;20588;-57
2024/02/26 07:36:05;;;;;;;2.43;2.00;;;;;;;;;;5025896;28;20213;-58
2024/02/26 07:38:31;;;;;;;2.10;1.90;;;;;;;;;;5027199;28;20626;-58
2024/02/26 07:40:57;;;;;;;2.17;1.90;;;;;;;;;;5029003;28;20193;-57
2024/02/26 07:43:23;;;;;;;2.17;1.87;;;;;;;;;;5031001;28;20206;-57
2024/02/26 07:45:49;;;;;;;2.30;1.73;;;;;;;;;;5029331;28;20505;-58
2024/02/26 07:48:15;;;;;;;3.30;2.23;;;;;;;;;;5023576;28;20261;-56
2024/02/26 07:50:41;;;;;;;3.27;1.90;;;;;;;;;;5019193;28;20162;-58
2024/02/26 07:53:07;;;;;;;2.37;1.90;;;;;;;;;;5025656;28;20197;-57
2024/02/26 07:55:33;;;;;;;2.13;1.97;;;;;;;;;;5022544;28;20257;-57
2024/02/26 07:58:00;;;;;;;2.13;1.90;;;;;;;;;;5015421;28;20198;-57
2024/02/26 08:00:26;;;;;;;2.50;2.13;;;;;;;;;;5021937;28;20182;-54
2024/02/26 08:02:52;;;;;;;2.00;1.80;;;;;;;;;;5013215;28;20546;-54
2024/02/26 08:05:18;;;;;;;2.63;1.97;;;;;;;;;;5022358;28;20610;-55
2024/02/26 08:07:44;;;;;;;4.10;2.50;;;;;;;;;;5028554;28;20525;-56
2024/02/26 08:10:13;;;;;;;3.53;1.80;;;;;;;;;;5028002;28;20189;-54
2024/02/26 08:12:39;;;;;;;2.63;2.23;;;;;;;;;;5023768;28;20603;-54
2024/02/26 08:15:06;;;;;;;2.37;2.17;;;;;;;;;;5027172;28;20182;-55
2024/02/26 08:17:32;;;;;;;1.63;1.53;;;;;;;;;;5025843;28;20654;-54
2024/02/26 08:19:59;;;;;;;1.90;1.70;;;;;;;;;;5019795;28;20360;-56
2024/02/26 08:22:25;;;;;;;3.43;2.10;;;;;;;;;;5022693;28;20195;-54
2024/02/26 08:24:51;;;;;;;2.80;2.40;;;;;;;;;;5023347;28;20205;-54
2024/02/26 08:27:17;;;;;;;2.10;1.73;;;;;;;;;;5027154;28;20172;-54
2024/02/26 08:29:43;;;;;;;4.23;2.17;;;;;;;;;;5026202;28;20211;-54
2024/02/26 08:32:09;;;;;;;2.17;1.80;;;;;;;;;;5024744;28;20181;-55
2024/02/26 08:34:35;;;;;;;2.10;1.90;;;;;;;;;;5022566;28;20186;-54
2024/02/26 08:37:01;;;;;;;2.70;1.80;;;;;;;;;;5025219;28;20244;-55
2024/02/26 08:39:27;;;;;;;4.33;1.90;;;;;;;;;;5024857;28;20190;-56
2024/02/26 08:41:54;;;;;;;3.13;2.13;;;;;;;;;;5027965;28;20545;-54
2024/02/26 08:44:20;;;;;;;2.10;1.90;;;;;;;;;;5026927;28;20166;-54
2024/02/26 08:46:46;;;;;;;2.17;1.93;;;;;;;;;;5021847;28;21064;-54
2024/02/26 08:49:12;;;;;;;2.20;2.00;;;;;;;;;;5025482;28;20806;-54
2024/02/26 08:51:44;;;;;;;2.40;2.20;;;;;;;;;;5026103;28;20243;-55
2024/02/26 08:54:10;;;;;;;2.10;1.90;;;;;;;;;;5019535;28;20167;-54
2024/02/26 08:56:36;;;;;;;2.03;1.90;;;;;;;;;;5023933;28;20243;-55
2024/02/26 08:59:03;;;;;;;2.40;2.20;;;;;;;;;;5021053;28;20182;-55
2024/02/26 09:01:30;;;;;;;2.90;1.80;;;;;;;;;;5024800;28;20181;-54
2024/02/26 09:03:56;;;;;;;2.43;1.70;;;;;;;;;;5023025;28;20193;-55
2024/02/26 09:06:22;;;;;;;2.97;1.97;;;;;;;;;;5027143;28;20202;-55
2024/02/26 09:08:48;;;;;;;2.43;1.60;;;;;;;;;;5025245;28;20166;-54
2024/02/26 09:11:14;;;;;;;2.83;2.10;;;;;;;;;;5023419;28;20265;-52
2024/02/26 09:13:40;;;;;;;2.93;2.10;;;;;;;;;;5024402;28;20173;-52
2024/02/26 09:16:07;;;;;;;2.37;1.87;;;;;;;;;;5022270;28;20184;-53
2024/02/26 09:18:33;;;;;;;1.67;1.57;;;;;;;;;;5023293;28;20563;-52
2024/02/26 09:20:59;;;;;;;2.03;1.70;;;;;;;;;;5026776;28;20272;-56
2024/02/26 09:23:25;;;;;;;2.67;1.40;;;;;;;;;;5027194;28;20196;-52
2024/02/26 09:25:51;;;;;;;4.63;1.93;;;;;;;;;;5025567;28;20288;-52
2024/02/26 09:28:17;;;;;;;2.13;1.93;;;;;;;;;;5021518;28;20240;-54
2024/02/26 09:30:44;;;;;;;1.80;1.70;;;;;;;;;;5020775;28;20629;-54
2024/02/26 09:33:10;;;;;;;2.30;2.10;;;;;;;;;;5018090;28;20170;-53
2024/02/26 09:35:36;;;;;;;2.87;2.00;;;;;;;;;;5018498;28;20170;-52
2024/02/26 09:38:02;;;;;;;2.20;2.00;;;;;;;;;;5025366;28;20213;-52
2024/02/26 09:40:28;;;;;;;2.47;1.97;;;;;;;;;;5022254;28;20190;-53
2024/02/26 09:42:59;;;;;;;3.43;2.33;;;;;;;;;;5026853;28;20292;-52
2024/02/26 09:45:27;;;;;;;2.30;2.10;;;;;;;;;;5027316;28;20209;-54
2024/02/26 09:47:55;;;;;;;4.63;2.33;;;;;;;;;;5024721;28;20165;-52
2024/02/26 09:50:25;;;;;;;4.70;2.10;;;;;;;;;;5021858;28;20182;-52
2024/02/26 09:52:53;;;;;;;2.87;2.30;;;;;;;;;;5021994;28;20288;-54
2024/02/26 09:55:19;;;;;;;2.20;1.90;;;;;;;;;;5023140;28;20300;-52
2024/02/26 09:57:46;;;;;;;2.43;2.23;;;;;;;;;;5026049;28;20205;-53
2024/02/26 10:00:22;;;;;;;2.00;1.80;;;;;;;;;;5024850;28;20925;-54
2024/02/26 10:02:48;;;;;;;3.30;2.30;;;;;;;;;;5020251;28;20646;-53
2024/02/26 10:05:22;;;;;;;2.20;2.00;;;;;;;;;;5024594;28;20204;-54
2024/02/26 10:07:48;;;;;;;2.13;1.90;;;;;;;;;;5027106;28;20252;-54
2024/02/26 10:10:15;;;;;;;2.30;2.07;;;;;;;;;;5025018;28;20166;-52
2024/02/26 10:12:41;;;;;;;2.20;2.00;;;;;;;;;;5023561;28;20658;-53
2024/02/26 10:15:07;;;;;;;2.77;2.03;;;;;;;;;;5020020;28;20284;-54
2024/02/26 10:17:33;;;;;;;2.97;2.03;;;;;;;;;;5023522;28;20562;-51
2024/02/26 10:20:28;;;;;;;2.07;1.80;;;;;;;;;;5024129;28;20217;-57
2024/02/26 10:22:54;;;;;;;3.93;1.80;;;;;;;;;;5021198;28;20186;-52
2024/02/26 10:25:20;;;;;;;2.80;2.47;;;;;;;;;;5023785;28;20209;-54
2024/02/26 10:27:46;;;;;;;2.30;2.10;;;;;;;;;;5025285;28;20948;-51
2024/02/26 10:30:19;;;;;;;2.47;2.27;;;;;;;;;;5019818;28;20185;-51
2024/02/26 10:32:48;;;;;;;2.97;2.60;;;;;;;;;;5025294;28;20284;-54
2024/02/26 10:35:17;;;;;;;5.57;2.17;;;;;;;;;;5018893;28;20162;-52
2024/02/26 10:37:44;;;;;;;3.07;2.23;;;;;;;;;;5020962;28;20187;-55
2024/02/26 10:40:11;;;;;;;3.13;2.40;;;;;;;;;;5023197;28;20198;-54
2024/02/26 10:42:38;;;;;;;3.07;2.20;;;;;;;;;;5020361;28;20210;-54
2024/02/26 10:45:05;;;;;;;2.50;2.30;;;;;;;;;;5026580;28;20568;-52
2024/02/26 10:47:33;;;;;;;2.10;1.90;;;;;;;;;;5020650;28;20178;-52
2024/02/26 10:49:59;;;;;;;3.93;2.50;;;;;;;;;;5025551;28;20691;-53
2024/02/26 10:52:26;;;;;;;4.67;2.17;;;;;;;;;;5026258;28;20182;-52
2024/02/26 10:54:54;;;;;;;2.90;2.23;;;;;;;;;;5025320;28;20176;-52
2024/02/26 10:57:21;;;;;;;2.20;2.00;;;;;;;;;;5025465;28;20622;-53
2024/02/26 10:59:48;;;;;;;2.43;2.23;;;;;;;;;;5026706;28;20208;-54
2024/02/26 11:02:14;;;;;;;2.40;2.20;;;;;;;;;;5027440;28;20200;-53
2024/02/26 11:04:40;;;;;;;2.67;2.03;;;;;;;;;;5025268;28;20224;-53
2024/02/26 11:07:08;;;;;;;2.70;2.40;;;;;;;;;;5026413;28;20268;-53
2024/02/26 11:09:36;;;;;;;2.80;2.50;;;;;;;;;;5022308;28;20181;-53
2024/02/26 11:12:07;;;;;;;3.33;2.30;;;;;;;;;;5025990;28;20185;-54
2024/02/26 11:14:33;;;;;;;2.83;2.63;;;;;;;;;;5026096;28;20213;-54
2024/02/26 11:17:00;;;;;;;3.00;2.47;;;;;;;;;;5032270;28;20196;-52
2024/02/26 11:19:27;;;;;;;2.53;2.33;;;;;;;;;;5029547;28;20325;-54
2024/02/26 11:21:53;;;;;;;2.87;2.57;;;;;;;;;;5023232;28;20558;-53
2024/02/26 11:24:19;;;;;;;2.80;2.53;;;;;;;;;;5028109;28;20182;-57
2024/02/26 11:26:47;;;;;;;4.03;2.40;;;;;;;;;;5028998;28;20198;-53
2024/02/26 11:29:14;;;;;;;3.07;2.33;;;;;;;;;;5029797;28;20613;-53
2024/02/26 11:31:40;;;;;;;2.90;2.70;;;;;;;;;;5028316;28;20645;-55
2024/02/26 11:34:08;;;;;;;2.80;2.50;;;;;;;;;;5025188;28;20320;-54
2024/02/26 11:36:34;;;;;;;3.97;3.57;;;;;;;;;;5026336;28;20649;-54
2024/02/26 11:39:00;;;;;;;4.43;2.90;;;;;;;;;;5026156;28;20668;-56
2024/02/26 11:41:26;;;;;;;3.43;2.33;;;;;;;;;;5026595;28;20532;-55
2024/02/26 11:43:53;;;;;;;3.07;2.83;;;;;;;;;;5030157;28;20205;-55
2024/02/26 11:46:32;;;;;;;3.03;2.57;;;;;;;;;;5029819;28;20227;-54
2024/02/26 11:49:02;;;;;;;2.90;2.60;;;;;;;;;;5027045;28;20551;-55
2024/02/26 11:51:28;;;;;;;3.43;2.83;;;;;;;;;;5024180;28;20190;-54
2024/02/26 11:53:57;;;;;;;3.33;2.90;;;;;;;;;;5026408;28;20181;-55
2024/02/26 11:56:24;;;;;;;4.33;2.97;;;;;;;;;;5014593;28;20646;-53
2024/02/26 11:59:00;;;;;;;3.80;2.97;;;;;;;;;;5030243;28;20212;-55
2024/02/26 12:01:39;;;;;;;3.30;3.00;;;;;;;;;;5022333;28;20170;-53
2024/02/26 12:04:06;;;;;;;3.37;3.07;;;;;;;;;;5029872;28;20721;-55
2024/02/26 12:06:32;;;;;;;3.00;2.60;;;;;;;;;;5026747;28;20289;-54
2024/02/26 12:08:58;;;;;;;3.33;2.97;;;;;;;;;;5027870;28;20186;-54
2024/02/26 12:11:28;;;;;;;3.73;3.43;;;;;;;;;;5024635;28;20194;-54
2024/02/26 12:13:54;;;;;;;4.20;3.47;;;;;;;;;;5025893;28;20500;-54
2024/02/26 12:16:39;;;;;;;3.33;2.93;;;;;;;;;;5029187;28;20994;-54
2024/02/26 12:19:09;;;;;;;5.33;2.70;;;;;;;;;;5021284;28;20230;-54
2024/02/26 12:21:36;;;;;;;3.60;3.20;;;;;;;;;;5017272;28;20178;-54
2024/02/26 12:24:12;;;;;;;3.27;2.80;;;;;;;;;;5021583;28;20227;-55
2024/02/26 12:26:38;;;;;;;4.33;3.63;;;;;;;;;;5019969;28;20245;-53
2024/02/26 12:29:04;;;;;;;4.67;2.93;;;;;;;;;;5022963;28;20166;-54
2024/02/26 12:31:31;;;;;;;3.70;3.40;;;;;;;;;;5024102;28;20186;-55
2024/02/26 12:33:57;;;;;;;4.50;2.90;;;;;;;;;;5024150;28;20184;-54
2024/02/26 12:36:23;;;;;;;3.77;3.30;;;;;;;;;;5022452;28;20193;-54
2024/02/26 12:38:51;;;;;;;4.03;3.10;;;;;;;;;;5023329;28;20186;-53
2024/02/26 12:41:17;;;;;;;3.40;3.10;;;;;;;;;;5027002;28;20644;-56
2024/02/26 12:43:43;;;;;;;4.07;2.90;;;;;;;;;;5021788;28;20214;-52
2024/02/26 12:46:09;;;;;;;4.20;3.57;;;;;;;;;;5025817;28;20229;-52
2024/02/26 12:48:35;;;;;;;3.80;3.13;;;;;;;;;;5022573;28;20233;-55
2024/02/26 12:51:01;;;;;;;4.70;3.60;;;;;;;;;;5025565;28;20663;-52
2024/02/26 12:53:27;;;;;;;4.63;4.20;;;;;;;;;;5027763;28;20193;-54
2024/02/26 12:55:55;;;;;;;3.90;3.47;;;;;;;;;;5021378;28;20174;-54
2024/02/26 12:58:24;;;;;;;4.83;4.23;;;;;;;;;;5022832;28;20571;-52
2024/02/26 13:00:51;;;;;;;4.07;3.60;;;;;;;;;;5025633;28;20645;-53
2024/02/26 13:03:17;;;;;;;4.53;4.13;;;;;;;;;;5026456;28;20186;-52
2024/02/26 13:05:43;;;;;;;4.23;3.70;;;;;;;;;;5026109;28;20198;-52
2024/02/26 13:08:09;;;;;;;4.40;4.00;;;;;;;;;;5019576;28;20536;-53
2024/02/26 13:10:35;;;;;;;7.13;4.30;;;;;;;;;;5023222;28;20170;-53
2024/02/26 13:13:02;;;;;;;4.33;3.93;;;;;;;;;;5025249;28;20170;-52
2024/02/26 13:15:28;;;;;;;4.23;3.83;;;;;;;;;;5016369;28;20178;-53
2024/02/26 13:17:56;;;;;;;4.53;4.10;;;;;;;;;;5020881;28;20194;-53
2024/02/26 13:20:29;;;;;;;5.53;4.63;;;;;;;;;;5023073;28;20255;-53
2024/02/26 13:23:02;;;;;;;4.90;4.33;;;;;;;;;;5028180;28;20186;-54
2024/02/26 13:25:28;;;;;;;4.87;4.17;;;;;;;;;;5025187;28;20671;-52
2024/02/26 13:28:04;;;;;;;6.13;4.10;;;;;;;;;;5027350;28;20174;-54
2024/02/26 13:30:30;;;;;;;4.80;4.30;;;;;;;;;;5026384;28;20636;-52
2024/02/26 13:32:56;;;;;;;5.17;4.77;;;;;;;;;;5026357;28;20166;-52
2024/02/26 13:35:22;;;;;;;5.77;4.40;;;;;;;;;;5026149;28;20210;-54
2024/02/26 13:37:48;;;;;;;4.37;3.97;;;;;;;;;;5028016;28;20256;-54
2024/02/26 13:40:14;;;;;;;4.87;4.37;;;;;;;;;;5025675;28;20324;-54
2024/02/26 13:42:41;;;;;;;5.63;4.30;;;;;;;;;;5020535;28;20673;-53
2024/02/26 13:45:07;;;;;;;5.33;4.50;;;;;;;;;;5021906;28;20206;-53
2024/02/26 13:47:34;;;;;;;5.57;4.03;;;;;;;;;;5026272;28;20197;-54
2024/02/26 13:50:00;;;;;;;4.20;3.80;;;;;;;;;;5026649;28;20174;-53
2024/02/26 13:52:27;;;;;;;7.03;4.30;;;;;;;;;;5023383;28;20269;-55
2024/02/26 13:54:53;;;;;;;4.93;4.20;;;;;;;;;;5022362;28;20944;-55
2024/02/26 13:57:22;;;;;;;4.90;4.30;;;;;;;;;;5027531;28;20170;-55
2024/02/26 13:59:48;;;;;;;3.90;3.50;;;;;;;;;;5021630;28;20541;-55
2024/02/26 14:02:14;;;;;;;6.57;4.60;;;;;;;;;;5018332;28;20185;-55
2024/02/26 14:04:40;;;;;;;7.00;3.97;;;;;;;;;;5024685;28;20264;-55
2024/02/26 14:07:06;;;;;;;4.90;4.13;;;;;;;;;;5022660;28;20251;-55
2024/02/26 14:09:32;;;;;;;4.97;4.47;;;;;;;;;;5026628;28;20226;-56
2024/02/26 14:11:59;;;;;;;4.83;4.40;;;;;;;;;;5027421;28;20214;-55
2024/02/26 14:14:25;;;;;;;4.30;3.87;;;;;;;;;;5019915;28;20178;-55
2024/02/26 14:16:51;;;;;;;4.13;3.67;;;;;;;;;;5025027;28;20226;-55
2024/02/26 14:19:18;;;;;;;4.23;3.70;;;;;;;;;;5023638;28;20711;-55
2024/02/26 14:21:44;;;;;;;4.70;3.50;;;;;;;;;;5019555;28;20181;-55
2024/02/26 14:24:10;;;;;;;5.70;3.60;;;;;;;;;;5018587;28;20198;-54
2024/02/26 14:26:36;;;;;;;6.10;3.60;;;;;;;;;;5019071;28;20210;-53
2024/02/26 14:29:02;;;;;;;4.77;3.83;;;;;;;;;;5025260;28;20228;-53
2024/02/26 14:31:28;;;;;;;5.03;4.10;;;;;;;;;;5023197;28;20166;-56
2024/02/26 14:33:54;;;;;;;4.93;3.87;;;;;;;;;;5024213;28;20185;-56
2024/02/26 14:36:21;;;;;;;6.23;3.90;;;;;;;;;;5027320;28;20626;-56
2024/02/26 14:38:47;;;;;;;3.70;3.40;;;;;;;;;;5027716;28;20627;-56
2024/02/26 14:41:13;;;;;;;3.70;2.90;;;;;;;;;;5026644;28;20193;-56